createdAt,value
2019-05-14T00:01:16.512Z,16.80
2019-05-14T00:03:51.648Z,16.72
2019-05-14T00:06:25.729Z,16.73
2019-05-14T00:08:57.324Z,16.82
2019-05-14T00:11:31.217Z,16.80
2019-05-14T00:14:03.936Z,16.81
2019-05-14T00:16:35.599Z,16.70
2019-05-14T00:19:07.275Z,16.47
2019-05-14T00:21:39.036Z,16.43
2019-05-14T00:24:11.378Z,16.34
2019-05-14T00:26:43.521Z,16.27
2019-05-14T00:29:15.209Z,16.27
2019-05-14T00:31:46.862Z,16.34
2019-05-14T00:34:21.340Z,16.39
2019-05-14T00:36:52.608Z,16.45
2019-05-14T00:39:24.471Z,16.45
2019-05-14T00:41:56.097Z,16.43
2019-05-14T00:44:27.758Z,16.40
2019-05-14T00:46:59.353Z,16.36
2019-05-14T00:49:33.360Z,16.31
2019-05-14T00:52:06.195Z,16.21
2019-05-14T00:54:41.696Z,16.21
2019-05-14T00:57:15.343Z,16.21
2019-05-14T00:59:47.077Z,16.23
2019-05-14T01:02:18.703Z,16.16
2019-05-14T01:04:51.653Z,16.18
2019-05-14T01:07:23.567Z,16.19
2019-05-14T01:09:55.250Z,16.00
2019-05-14T01:12:26.952Z,15.96
2019-05-14T01:15:09.635Z,15.90
2019-05-14T01:17:34.922Z,15.81
2019-05-14T01:20:06.634Z,15.83
2019-05-14T01:22:42.209Z,15.85
2019-05-14T01:25:14.210Z,15.77
2019-05-14T01:27:45.872Z,15.65
2019-05-14T01:30:17.640Z,15.59
2019-05-14T01:32:51.181Z,15.46
2019-05-14T01:35:24.643Z,15.34
2019-05-14T01:37:56.747Z,15.23
2019-05-14T01:40:31.538Z,15.19
2019-05-14T01:43:03.129Z,15.23
2019-05-14T01:45:35.195Z,15.23
2019-05-14T01:48:06.876Z,15.08
2019-05-14T01:50:38.596Z,15.08
2019-05-14T01:53:11.554Z,15.05
2019-05-14T01:55:43.574Z,14.90
2019-05-14T01:58:15.250Z,14.56
2019-05-14T02:00:47.007Z,14.62
2019-05-14T02:03:18.772Z,14.68
2019-05-14T02:05:52.107Z,14.72
2019-05-14T02:08:25.678Z,14.81
2019-05-14T02:10:57.306Z,14.81
2019-05-14T02:13:28.994Z,14.84
2019-05-14T02:16:01.619Z,14.87
2019-05-14T02:18:34.083Z,14.98
2019-05-14T02:21:06.034Z,14.95
2019-05-14T02:23:37.662Z,14.92
2019-05-14T02:26:11.434Z,14.84
2019-05-14T02:28:43.240Z,14.73
2019-05-14T02:31:15.412Z,14.62
2019-05-14T02:33:50.467Z,14.46
2019-05-14T02:36:20.710Z,14.26
2019-05-14T02:38:53.550Z,14.14
2019-05-14T02:41:25.195Z,14.03
2019-05-14T02:43:59.653Z,13.88
2019-05-14T02:46:31.384Z,13.85
2019-05-14T02:49:03.109Z,13.76
2019-05-14T02:51:35.092Z,13.78
2019-05-14T02:54:09.660Z,13.80
2019-05-14T02:56:40.598Z,13.77
2019-05-14T02:59:14.785Z,13.94
2019-05-14T03:01:49.411Z,13.94
2019-05-14T03:04:20.108Z,13.96
2019-05-14T03:06:51.843Z,13.84
2019-05-14T03:09:23.527Z,13.73
2019-05-14T03:11:55.254Z,13.62
2019-05-14T03:14:29.917Z,13.69
2019-05-14T03:17:01.574Z,13.63
2019-05-14T03:19:33.307Z,13.57
2019-05-14T03:22:04.989Z,13.53
2019-05-14T03:24:39.420Z,13.56
2019-05-14T03:27:10.273Z,13.56
2019-05-14T03:29:41.926Z,13.58
2019-05-14T03:32:14.149Z,13.54
2019-05-14T03:34:52.161Z,13.51
2019-05-14T03:37:23.506Z,13.43
2019-05-14T03:39:53.126Z,13.32
2019-05-14T03:42:24.797Z,13.22
2019-05-14T03:44:59.762Z,13.21
2019-05-14T03:47:32.590Z,13.25
2019-05-14T03:50:04.332Z,13.29
2019-05-14T03:52:35.992Z,13.20
2019-05-14T03:55:09.468Z,13.20
2019-05-14T03:57:41.213Z,13.21
2019-05-14T04:00:12.958Z,13.34
2019-05-14T04:02:44.642Z,13.28
2019-05-14T04:05:19.777Z,13.14
2019-05-14T04:07:50.535Z,13.07
2019-05-14T04:10:22.343Z,13.07
2019-05-14T04:12:54.076Z,13.08
2019-05-14T04:15:29.858Z,12.96
2019-05-14T04:18:00.659Z,12.89
2019-05-14T04:20:33.457Z,12.72
2019-05-14T04:23:05.136Z,12.60
2019-05-14T04:25:39.011Z,12.54
2019-05-14T04:28:11.034Z,12.45
2019-05-14T04:30:42.840Z,12.55
2019-05-14T04:33:18.901Z,12.65
2019-05-14T04:35:51.441Z,12.63
2019-05-14T04:38:23.169Z,12.52
2019-05-14T04:40:59.489Z,12.42
2019-05-14T04:43:32.030Z,12.39
2019-05-14T04:46:03.789Z,12.35
2019-05-14T04:48:41.585Z,12.49
2019-05-14T04:51:09.887Z,12.39
2019-05-14T04:53:41.792Z,12.25
2019-05-14T04:56:14.710Z,12.12
2019-05-14T04:58:49.731Z,12.07
2019-05-14T05:01:20.996Z,12.02
2019-05-14T05:03:58.774Z,12.02
2019-05-14T05:06:30.127Z,12.04
2019-05-14T05:09:03.551Z,12.12
2019-05-14T05:11:35.240Z,12.10
2019-05-14T05:14:08.820Z,12.42
2019-05-14T05:16:40.371Z,12.37
2019-05-14T05:19:12.234Z,12.17
2019-05-14T05:21:44.131Z,12.11
2019-05-14T05:24:18.431Z,11.99
2019-05-14T05:26:50.270Z,11.94
2019-05-14T05:29:21.961Z,12.06
2019-05-14T05:31:54.048Z,12.12
2019-05-14T05:34:28.152Z,12.08
2019-05-14T05:36:59.473Z,12.06
2019-05-14T05:39:31.390Z,12.14
2019-05-14T05:42:03.115Z,12.14
2019-05-14T05:44:35.140Z,12.11
2019-05-14T05:47:09.224Z,12.25
2019-05-14T05:49:40.420Z,12.39
2019-05-14T05:52:13.330Z,12.43
2019-05-14T05:54:45.495Z,12.45
2019-05-14T05:57:19.303Z,12.50
2019-05-14T05:59:52.477Z,12.57
2019-05-14T06:02:24.215Z,12.76
2019-05-14T06:04:55.903Z,14.10
2019-05-14T06:07:28.824Z,15.80
2019-05-14T06:10:01.164Z,17.01
2019-05-14T06:12:32.907Z,17.68
2019-05-14T06:15:04.924Z,18.39
2019-05-14T06:17:39.005Z,19.30
2019-05-14T06:20:10.601Z,19.15
2019-05-14T06:22:42.327Z,19.77
2019-05-14T06:25:14.065Z,19.72
2019-05-14T06:27:45.749Z,20.04
2019-05-14T06:30:24.767Z,20.48
2019-05-14T06:32:59.461Z,20.96
2019-05-14T06:35:31.187Z,21.44
2019-05-14T06:38:03.053Z,21.79
2019-05-14T06:40:34.764Z,21.64
2019-05-14T06:43:09.034Z,22.34
2019-05-14T06:45:42.298Z,23.06
2019-05-14T06:48:26.988Z,23.64
2019-05-14T06:50:50.205Z,23.25
2019-05-14T06:53:24.661Z,22.25
2019-05-14T06:55:58.562Z,23.33
2019-05-14T06:58:30.053Z,23.86
2019-05-14T07:01:02.063Z,24.91
2019-05-14T07:03:33.816Z,25.28
2019-05-14T07:06:05.559Z,25.26
2019-05-14T07:08:39.264Z,25.99
2019-05-14T07:11:12.416Z,25.77
2019-05-14T07:13:44.145Z,26.17
2019-05-14T07:16:15.865Z,27.14
2019-05-14T07:18:52.817Z,27.67
2019-05-14T07:21:21.698Z,26.89
2019-05-14T07:23:53.416Z,27.46
2019-05-14T07:26:29.493Z,28.19
2019-05-14T07:29:01.228Z,28.63
2019-05-14T07:31:33.014Z,29.10
2019-05-14T07:34:04.723Z,29.38
2019-05-14T07:36:38.746Z,29.96
2019-05-14T07:39:10.776Z,30.32
2019-05-14T07:41:42.506Z,30.87
2019-05-14T07:44:14.342Z,31.35
2019-05-14T07:46:48.292Z,31.47
2019-05-14T07:49:20.226Z,31.62
2019-05-14T07:51:51.903Z,32.13
2019-05-14T07:54:23.958Z,32.35
2019-05-14T07:56:55.656Z,32.98
2019-05-14T07:59:28.715Z,33.37
2019-05-14T08:02:00.966Z,33.41
2019-05-14T08:04:34.537Z,33.09
2019-05-14T08:07:08.714Z,32.91
2019-05-14T08:09:39.745Z,33.23
2019-05-14T08:12:12.946Z,33.19
2019-05-14T08:14:57.939Z,32.67
2019-05-14T08:17:19.071Z,32.87
2019-05-14T08:19:50.975Z,33.44
2019-05-14T08:22:22.717Z,33.58
2019-05-14T08:24:54.448Z,33.95
2019-05-14T08:27:30.920Z,32.43
2019-05-14T08:30:00.879Z,33.01
2019-05-14T08:32:32.611Z,34.10
2019-05-14T08:35:04.541Z,34.18
2019-05-14T08:37:38.495Z,33.65
2019-05-14T08:40:10.808Z,33.87
2019-05-14T08:42:43.497Z,34.00
2019-05-14T08:45:15.213Z,34.29
2019-05-14T08:47:48.276Z,34.29
2019-05-14T08:50:22.189Z,34.43
2019-05-14T08:52:54.056Z,34.72
2019-05-14T08:55:25.821Z,34.72
2019-05-14T08:57:59.246Z,34.97
2019-05-14T09:00:30.959Z,34.80
2019-05-14T09:03:03.293Z,35.10
2019-05-14T09:05:35.125Z,34.97
2019-05-14T09:08:08.943Z,35.05
2019-05-14T09:10:42.014Z,35.13
2019-05-14T09:13:13.823Z,35.21
2019-05-14T09:15:45.527Z,34.80
2019-05-14T09:18:18.434Z,34.26
2019-05-14T09:20:50.317Z,35.22
2019-05-14T09:23:22.078Z,35.31
2019-05-14T09:25:58.568Z,35.35
2019-05-14T09:28:29.299Z,35.61
2019-05-14T09:31:01.038Z,35.77
2019-05-14T09:33:32.740Z,35.67
2019-05-14T09:36:14.717Z,34.76
2019-05-14T09:38:42.381Z,34.89
2019-05-14T09:41:15.251Z,35.52
2019-05-14T09:43:45.685Z,35.19
2019-05-14T09:46:18.478Z,35.59
2019-05-14T09:48:52.010Z,34.99
2019-05-14T09:51:24.165Z,34.78
2019-05-14T09:53:55.841Z,35.43
2019-05-14T09:56:29.084Z,35.45
2019-05-14T09:59:01.149Z,35.50
2019-05-14T10:01:38.305Z,35.72
2019-05-14T10:04:09.898Z,35.94
2019-05-14T10:06:41.644Z,35.81
2019-05-14T10:09:13.359Z,35.69
2019-05-14T10:11:45.686Z,35.38
2019-05-14T10:14:17.327Z,35.45
2019-05-14T10:16:50.856Z,36.23
2019-05-14T10:19:22.668Z,36.10
2019-05-14T10:21:54.360Z,36.56
2019-05-14T10:24:26.113Z,36.41
2019-05-14T10:26:58.652Z,36.26
2019-05-14T10:29:30.461Z,35.33
2019-05-14T10:32:02.231Z,35.14
2019-05-14T10:34:33.974Z,34.21
2019-05-14T10:37:08.396Z,34.71
2019-05-14T10:39:39.403Z,34.70
2019-05-14T10:42:11.427Z,35.69
2019-05-14T10:44:44.668Z,35.02
2019-05-14T10:47:18.751Z,35.52
2019-05-14T10:49:50.082Z,35.80
2019-05-14T10:52:21.902Z,34.90
2019-05-14T10:54:55.915Z,35.33
2019-05-14T10:57:29.006Z,34.58
2019-05-14T11:00:00.539Z,35.31
2019-05-14T11:02:32.320Z,35.59
2019-05-14T11:05:04.028Z,34.33
2019-05-14T11:07:35.836Z,36.02
2019-05-14T11:10:09.237Z,35.05
2019-05-14T11:12:41.104Z,35.08
2019-05-14T11:15:12.835Z,34.24
2019-05-14T11:17:44.509Z,34.70
2019-05-14T11:20:20.728Z,35.21
2019-05-14T11:22:52.494Z,34.77
2019-05-14T11:25:24.664Z,36.00
2019-05-14T11:27:58.470Z,37.14
2019-05-14T11:30:31.383Z,36.00
2019-05-14T11:33:03.066Z,35.74
2019-05-14T11:35:34.777Z,35.32
2019-05-14T11:38:24.073Z,34.89
2019-05-14T11:40:39.954Z,34.53
2019-05-14T11:43:12.766Z,34.81
2019-05-14T11:45:44.514Z,34.25
2019-05-14T11:48:19.064Z,33.76
2019-05-14T11:50:49.690Z,33.16
2019-05-14T11:53:21.506Z,32.27
2019-05-14T11:55:53.210Z,32.32
2019-05-14T11:58:24.915Z,32.24
2019-05-14T12:00:58.437Z,31.60
2019-05-14T12:03:30.320Z,31.67
2019-05-14T12:06:01.965Z,30.80
2019-05-14T12:08:33.980Z,30.74
2019-05-14T12:11:09.381Z,30.78
2019-05-14T12:13:41.898Z,31.02
2019-05-14T12:16:13.591Z,31.07
2019-05-14T12:18:45.278Z,30.97
2019-05-14T12:21:16.926Z,31.37
2019-05-14T12:23:48.763Z,31.43
2019-05-14T12:26:20.485Z,31.85
2019-05-14T12:28:55.913Z,31.69
2019-05-14T12:31:25.665Z,31.43
2019-05-14T12:33:58.398Z,31.60
2019-05-14T12:36:30.159Z,31.91
2019-05-14T12:39:01.915Z,31.83
2019-05-14T12:41:34.827Z,31.93
2019-05-14T12:44:09.258Z,31.99
2019-05-14T12:46:41.811Z,32.15
2019-05-14T12:49:14.651Z,32.26
2019-05-14T12:51:49.152Z,32.25
2019-05-14T12:54:20.096Z,32.27
2019-05-14T12:56:52.846Z,32.38
2019-05-14T12:59:24.604Z,32.68
2019-05-14T13:01:58.852Z,31.69
2019-05-14T13:04:33.324Z,32.04
2019-05-14T13:07:05.069Z,32.45
2019-05-14T13:09:38.512Z,32.27
2019-05-14T13:12:11.464Z,32.72
2019-05-14T13:14:45.573Z,32.72
2019-05-14T13:17:18.742Z,32.86
2019-05-14T13:19:50.629Z,32.41
2019-05-14T13:22:36.590Z,32.19
2019-05-14T13:24:58.034Z,32.51
2019-05-14T13:27:29.380Z,32.62
2019-05-14T13:30:01.120Z,32.51
2019-05-14T13:32:32.835Z,32.69
2019-05-14T13:35:12.273Z,32.55
2019-05-14T13:37:40.721Z,32.50
2019-05-14T13:40:13.892Z,32.70
2019-05-14T13:42:45.907Z,32.79
2019-05-14T13:45:19.088Z,32.84
2019-05-14T13:47:51.266Z,32.71
2019-05-14T13:50:23.966Z,32.77
2019-05-14T13:53:06.913Z,32.67
2019-05-14T13:55:30.723Z,32.77
2019-05-14T13:58:02.618Z,32.32
2019-05-14T14:00:34.521Z,32.70
2019-05-14T14:03:06.294Z,32.45
2019-05-14T14:05:39.177Z,32.54
2019-05-14T14:08:11.413Z,32.37
2019-05-14T14:10:46.185Z,32.35
2019-05-14T14:13:19.494Z,32.57
2019-05-14T14:15:50.369Z,32.41
2019-05-14T14:18:22.512Z,32.16
2019-05-14T14:20:54.230Z,32.28
2019-05-14T14:23:30.834Z,32.51
2019-05-14T14:26:00.424Z,32.64
2019-05-14T14:28:32.179Z,32.70
2019-05-14T14:31:07.440Z,32.39
2019-05-14T14:33:39.179Z,32.52
2019-05-14T14:36:11.281Z,32.27
2019-05-14T14:38:43.486Z,32.25
2019-05-14T14:41:15.203Z,32.19
2019-05-14T14:43:53.258Z,31.96
2019-05-14T14:46:22.256Z,31.72
2019-05-14T14:48:57.824Z,31.51
2019-05-14T14:51:28.527Z,31.64
2019-05-14T14:54:10.829Z,31.43
2019-05-14T14:56:37.987Z,31.51
2019-05-14T14:59:10.081Z,31.52
2019-05-14T15:01:44.398Z,31.48
2019-05-14T15:04:19.484Z,31.39
2019-05-14T15:06:51.417Z,31.26
2019-05-14T15:09:23.443Z,31.04
2019-05-14T15:11:55.238Z,31.05
2019-05-14T15:14:29.717Z,31.08
2019-05-14T15:17:00.400Z,31.08
2019-05-14T15:19:32.585Z,31.01
2019-05-14T15:22:04.361Z,30.83
2019-05-14T15:24:36.509Z,30.86
2019-05-14T15:27:14.799Z,30.73
2019-05-14T15:29:43.183Z,30.57
2019-05-14T15:32:19.716Z,30.45
2019-05-14T15:34:51.710Z,30.43
2019-05-14T15:37:23.491Z,30.37
2019-05-14T15:39:55.223Z,30.23
2019-05-14T15:42:28.389Z,30.34
2019-05-14T15:45:00.621Z,30.28
2019-05-14T15:47:32.387Z,30.14
2019-05-14T15:50:05.779Z,30.00
2019-05-14T15:52:39.395Z,29.72
2019-05-14T15:55:11.071Z,29.76
2019-05-14T15:57:42.875Z,29.75
2019-05-14T16:00:14.591Z,29.87
2019-05-14T16:02:46.372Z,29.89
2019-05-14T16:05:19.173Z,29.66
2019-05-14T16:07:50.926Z,29.51
2019-05-14T16:10:22.687Z,29.36
2019-05-14T16:12:54.384Z,29.45
2019-05-14T16:15:28.127Z,29.38
2019-05-14T16:18:07.773Z,29.36
2019-05-14T16:20:34.228Z,29.32
2019-05-14T16:23:05.954Z,29.19
2019-05-14T16:25:38.093Z,29.11
2019-05-14T16:28:10.090Z,29.13
2019-05-14T16:30:41.899Z,29.01
2019-05-14T16:33:13.644Z,29.02
2019-05-14T16:35:45.410Z,29.16
2019-05-14T16:38:17.459Z,28.99
2019-05-14T16:40:49.197Z,28.85
2019-05-14T16:43:21.001Z,28.75
2019-05-14T16:45:52.716Z,28.85
2019-05-14T16:48:25.449Z,28.77
2019-05-14T16:50:58.422Z,28.76
2019-05-14T16:53:30.372Z,28.62
2019-05-14T16:56:04.615Z,28.56
2019-05-14T16:58:38.734Z,28.36
2019-05-14T17:01:10.090Z,28.25
2019-05-14T17:03:42.072Z,28.22
2019-05-14T17:06:14.197Z,28.27
2019-05-14T17:08:48.641Z,28.21
2019-05-14T17:11:19.555Z,27.91
2019-05-14T17:13:53.801Z,28.11
2019-05-14T17:16:25.567Z,28.04
2019-05-14T17:18:59.165Z,27.87
2019-05-14T17:21:31.461Z,27.90
2019-05-14T17:24:03.225Z,27.87
2019-05-14T17:26:34.973Z,27.66
2019-05-14T17:29:08.779Z,27.69
2019-05-14T17:31:40.197Z,27.66
2019-05-14T17:34:12.291Z,27.60
2019-05-14T17:36:44.476Z,27.53
2019-05-14T17:39:18.636Z,27.45
2019-05-14T17:41:49.777Z,27.49
2019-05-14T17:44:21.683Z,27.47
2019-05-14T17:46:53.579Z,27.53
2019-05-14T17:49:25.482Z,27.45
2019-05-14T17:51:58.112Z,27.39
2019-05-14T17:54:30.206Z,27.25
2019-05-14T17:57:01.923Z,27.22
2019-05-14T17:59:33.957Z,27.24
2019-05-14T18:02:08.673Z,27.18
2019-05-14T18:04:40.475Z,27.17
2019-05-14T18:07:12.181Z,27.17
2019-05-14T18:09:43.934Z,27.03
2019-05-14T18:12:18.863Z,26.91
2019-05-14T18:14:50.159Z,26.84
2019-05-14T18:17:21.915Z,26.70
2019-05-14T18:19:53.671Z,26.75
2019-05-14T18:22:25.378Z,26.65
2019-05-14T18:24:59.281Z,26.65
2019-05-14T18:27:31.728Z,26.66
2019-05-14T18:30:04.081Z,26.50
2019-05-14T18:32:36.846Z,26.42
2019-05-14T18:35:08.606Z,26.40
2019-05-14T18:37:40.367Z,26.32
2019-05-14T18:40:12.133Z,26.24
2019-05-14T18:42:44.912Z,26.14
2019-05-14T18:45:19.024Z,25.94
2019-05-14T18:47:50.898Z,25.74
2019-05-14T18:50:22.698Z,25.66
2019-05-14T18:52:54.832Z,25.53
2019-05-14T18:55:29.125Z,25.49
2019-05-14T18:58:00.360Z,25.36
2019-05-14T19:00:33.419Z,25.20
2019-05-14T19:03:05.133Z,25.07
2019-05-14T19:05:38.746Z,24.98
2019-05-14T19:08:10.496Z,24.92
2019-05-14T19:10:42.227Z,24.73
2019-05-14T19:13:13.941Z,24.64
2019-05-14T19:15:48.172Z,24.55
2019-05-14T19:18:21.923Z,24.46
2019-05-14T19:20:55.814Z,24.37
2019-05-14T19:23:29.083Z,24.28
2019-05-14T19:26:00.846Z,24.24
2019-05-14T19:28:33.910Z,24.04
2019-05-14T19:31:05.779Z,24.00
2019-05-14T19:33:40.171Z,23.87
2019-05-14T19:36:12.087Z,23.85
2019-05-14T19:38:44.124Z,23.78
2019-05-14T19:41:23.090Z,23.71
2019-05-14T19:44:20.146Z,23.60
2019-05-14T19:46:52.566Z,23.49
2019-05-14T19:49:24.335Z,23.43
2019-05-14T19:51:56.191Z,23.30
2019-05-14T19:54:29.222Z,23.09
2019-05-14T19:57:01.749Z,22.99
2019-05-14T19:59:33.560Z,22.81
2019-05-14T20:02:05.476Z,22.72
2019-05-14T20:04:37.270Z,22.73
2019-05-14T20:07:09.110Z,22.60
2019-05-14T20:09:40.849Z,22.41
2019-05-14T20:12:14.332Z,22.32
2019-05-14T20:14:48.866Z,22.32
2019-05-14T20:17:20.974Z,22.10
2019-05-14T20:19:52.758Z,21.76
2019-05-14T20:22:24.599Z,21.63
2019-05-14T20:24:56.350Z,21.71
2019-05-14T20:27:28.344Z,21.70
2019-05-14T20:30:01.897Z,21.64
2019-05-14T20:32:35.399Z,21.33
2019-05-14T20:35:09.018Z,21.26
2019-05-14T20:37:41.155Z,21.38
2019-05-14T20:40:13.902Z,21.34
2019-05-14T20:42:49.327Z,21.23
2019-05-14T20:45:21.556Z,21.09
2019-05-14T20:47:55.911Z,20.92
2019-05-14T20:50:29.609Z,20.69
2019-05-14T20:53:01.463Z,20.61
2019-05-14T20:55:33.201Z,20.50
2019-05-14T20:58:04.912Z,20.47
2019-05-14T21:00:41.196Z,20.40
2019-05-14T21:03:10.439Z,20.49
2019-05-14T21:05:44.745Z,20.35
2019-05-14T21:08:19.030Z,20.26
2019-05-14T21:10:51.179Z,19.72
2019-05-14T21:13:22.975Z,19.67
2019-05-14T21:16:01.520Z,19.65
2019-05-14T21:18:35.385Z,19.62
2019-05-14T21:21:10.923Z,19.63
2019-05-14T21:23:40.883Z,19.76
2019-05-14T21:26:12.726Z,19.72
2019-05-14T21:28:44.649Z,19.60
2019-05-14T21:31:18.110Z,19.54
2019-05-14T21:33:53.475Z,19.36
2019-05-14T21:36:28.555Z,18.96
2019-05-14T21:39:00.882Z,18.85
2019-05-14T21:41:38.628Z,18.71
2019-05-14T21:44:10.834Z,18.70
2019-05-14T21:46:42.987Z,18.80
2019-05-14T21:49:14.825Z,18.86
2019-05-14T21:51:48.341Z,18.79
2019-05-14T21:54:23.833Z,18.76
2019-05-14T21:56:59.588Z,18.76
2019-05-14T21:59:34.498Z,18.81
2019-05-14T22:02:08.038Z,18.72
2019-05-14T22:04:41.100Z,18.63
2019-05-14T22:07:12.933Z,18.48
2019-05-14T22:09:48.777Z,18.47
2019-05-14T22:12:20.919Z,18.40
2019-05-14T22:14:55.933Z,18.49
2019-05-14T22:17:28.517Z,18.51
2019-05-14T22:20:00.413Z,18.79
2019-05-14T22:22:32.178Z,18.23
2019-05-14T22:25:05.626Z,17.83
2019-05-14T22:27:39.295Z,17.69
2019-05-14T22:30:13.055Z,17.59
2019-05-14T22:32:44.872Z,17.50
2019-05-14T22:35:18.669Z,17.44
2019-05-14T22:37:50.540Z,17.56
2019-05-14T22:40:23.231Z,17.62
2019-05-14T22:43:00.047Z,17.65
2019-05-14T22:45:30.237Z,17.72
2019-05-14T22:48:02.093Z,17.56
2019-05-14T22:50:34.247Z,17.47
2019-05-14T22:53:09.222Z,17.42
2019-05-14T22:55:40.662Z,17.29
2019-05-14T22:58:24.713Z,17.23
2019-05-14T23:00:58.015Z,17.12
2019-05-14T23:03:24.625Z,17.14
2019-05-14T23:05:58.213Z,16.99
2019-05-14T23:08:29.923Z,17.11
2019-05-14T23:11:08.688Z,17.14
2019-05-14T23:13:40.970Z,17.15
2019-05-14T23:16:14.457Z,17.15
2019-05-14T23:18:48.580Z,17.09
2019-05-14T23:21:21.978Z,16.95
2019-05-14T23:23:55.390Z,16.89
2019-05-14T23:26:28.680Z,16.88
2019-05-14T23:29:00.546Z,16.84
2019-05-14T23:31:32.362Z,16.74
2019-05-14T23:34:06.599Z,16.69
2019-05-14T23:36:38.943Z,16.69
2019-05-14T23:39:10.781Z,16.82
2019-05-14T23:41:42.544Z,16.79
2019-05-14T23:44:14.369Z,16.67
2019-05-14T23:46:48.935Z,16.59
2019-05-14T23:49:22.466Z,16.67
2019-05-14T23:51:57.376Z,16.64
2019-05-14T23:54:29.326Z,16.59
2019-05-14T23:57:04.073Z,16.56
2019-05-14T23:59:39.623Z,16.60
